首页
METAR-TAF:

METAR-TAF

机场 :

塔兰托, 意大利

纬度: 40-31N, 经度: 017-24E, 海拔: 64米

当前天气观测

该预报发布于1小时和7分钟前的09:50 UTC
风速13节,风向西转西北
温度 11°C
湿度 62%
气压 1011 hPa
能见度10公里或以上
散云层高于3500英尺

METAR: LIBG 270950Z 30013KT 9999 SCT035 11/04 Q1011

时间: 11:57 (10:57 UTC)

预报

该预报发布于2小时和57分钟前的08:00 UTC
预报有效从27日的 09点(UTC)到 27日的 18点(UTC)
风速20节,风向西北,有时为30节阵风
能见度10公里或以上
散云层高于3000英尺
成为
从 27日的 12点(UTC)到 27日的 14点(UTC)
风速12节,风向北转西北

TAF: LIBG 270800Z 2709/2718 32020G30KT 9999 SCT030 BECMG 2712/2714 33012KT

超过4000个机场的气象观测和天气预报(METAR&TAF报告)。

可查询的气象台以黄色和红色小点在地图上表示。

将鼠标移到小点上方,可查看气象台名称。

然后点击查看天气观测和预报。

如需切换地图:点击带黑十字的绿色按钮放大地图;点击带横线的绿色按钮缩小地图;或者点击绿色箭头查看邻近地区的地图。


METAR-TAF: